sensor_id;sensor_type;location;lat;lon;timestamp;P1;durP1;ratioP1;P2;durP2;ratioP2
64353;SDS011;50681;53.334;-6.536;2023-06-04T00:01:57;11.37;;;5.80;;
64353;SDS011;50681;53.334;-6.536;2023-06-04T00:04:22;16.23;;;7.20;;
64353;SDS011;50681;53.334;-6.536;2023-06-04T00:06:48;11.60;;;5.85;;
64353;SDS011;50681;53.334;-6.536;2023-06-04T00:09:32;21.73;;;7.10;;
64353;SDS011;50681;53.334;-6.536;2023-06-04T00:11:57;20.15;;;6.15;;
64353;SDS011;50681;53.334;-6.536;2023-06-04T00:14:23;18.40;;;6.43;;
64353;SDS011;50681;53.334;-6.536;2023-06-04T00:16:48;16.42;;;6.15;;
64353;SDS011;50681;53.334;-6.536;2023-06-04T00:19:15;17.77;;;5.78;;
64353;SDS011;50681;53.334;-6.536;2023-06-04T00:21:41;11.63;;;5.90;;
64353;SDS011;50681;53.334;-6.536;2023-06-04T00:24:08;19.58;;;5.70;;
64353;SDS011;50681;53.334;-6.536;2023-06-04T00:26:34;14.00;;;5.60;;
64353;SDS011;50681;53.334;-6.536;2023-06-04T00:29:00;16.17;;;6.03;;
64353;SDS011;50681;53.334;-6.536;2023-06-04T00:33:51;11.50;;;4.40;;
64353;SDS011;50681;53.334;-6.536;2023-06-04T00:36:17;12.50;;;4.97;;
64353;SDS011;50681;53.334;-6.536;2023-06-04T00:38:42;13.75;;;5.03;;
64353;SDS011;50681;53.334;-6.536;2023-06-04T00:41:08;19.53;;;5.17;;
64353;SDS011;50681;53.334;-6.536;2023-06-04T00:43:33;14.17;;;5.60;;
64353;SDS011;50681;53.334;-6.536;2023-06-04T00:46:01;20.60;;;7.30;;
64353;SDS011;50681;53.334;-6.536;2023-06-04T00:48:28;20.00;;;5.03;;
64353;SDS011;50681;53.334;-6.536;2023-06-04T00:50:55;12.60;;;4.22;;
64353;SDS011;50681;53.334;-6.536;2023-06-04T00:53:23;11.60;;;4.72;;
64353;SDS011;50681;53.334;-6.536;2023-06-04T00:55:49;18.85;;;4.72;;
64353;SDS011;50681;53.334;-6.536;2023-06-04T00:58:15;20.77;;;5.00;;
64353;SDS011;50681;53.334;-6.536;2023-06-04T01:00:44;13.50;;;4.95;;
64353;SDS011;50681;53.334;-6.536;2023-06-04T01:03:17;18.88;;;4.53;;
64353;SDS011;50681;53.334;-6.536;2023-06-04T01:05:48;12.98;;;4.68;;
64353;SDS011;50681;53.334;-6.536;2023-06-04T01:08:20;10.07;;;4.20;;
64353;SDS011;50681;53.334;-6.536;2023-06-04T01:10:54;8.60;;;4.15;;
64353;SDS011;50681;53.334;-6.536;2023-06-04T01:13:20;9.52;;;4.18;;
64353;SDS011;50681;53.334;-6.536;2023-06-04T01:15:46;11.57;;;4.88;;
64353;SDS011;50681;53.334;-6.536;2023-06-04T01:18:11;11.73;;;4.67;;
64353;SDS011;50681;53.334;-6.536;2023-06-04T01:23:48;12.93;;;4.82;;
64353;SDS011;50681;53.334;-6.536;2023-06-04T01:26:27;12.35;;;4.63;;
64353;SDS011;50681;53.334;-6.536;2023-06-04T01:28:55;12.38;;;4.35;;
64353;SDS011;50681;53.334;-6.536;2023-06-04T01:31:21;10.10;;;4.43;;
64353;SDS011;50681;53.334;-6.536;2023-06-04T01:33:55;11.93;;;4.30;;
64353;SDS011;50681;53.334;-6.536;2023-06-04T01:36:23;10.60;;;4.20;;
64353;SDS011;50681;53.334;-6.536;2023-06-04T01:38:50;14.52;;;4.88;;
64353;SDS011;50681;53.334;-6.536;2023-06-04T01:41:20;12.80;;;4.53;;
64353;SDS011;50681;53.334;-6.536;2023-06-04T01:43:46;12.77;;;4.77;;
64353;SDS011;50681;53.334;-6.536;2023-06-04T01:46:11;13.60;;;4.83;;
64353;SDS011;50681;53.334;-6.536;2023-06-04T01:48:37;10.50;;;4.70;;
64353;SDS011;50681;53.334;-6.536;2023-06-04T01:53:30;14.95;;;4.45;;
64353;SDS011;50681;53.334;-6.536;2023-06-04T01:55:56;12.60;;;4.53;;
64353;SDS011;50681;53.334;-6.536;2023-06-04T01:58:22;14.32;;;4.55;;
64353;SDS011;50681;53.334;-6.536;2023-06-04T02:00:52;13.15;;;5.07;;
64353;SDS011;50681;53.334;-6.536;2023-06-04T02:03:22;12.45;;;4.60;;
64353;SDS011;50681;53.334;-6.536;2023-06-04T02:05:50;8.80;;;4.40;;
64353;SDS011;50681;53.334;-6.536;2023-06-04T02:08:16;17.43;;;4.73;;
64353;SDS011;50681;53.334;-6.536;2023-06-04T02:10:47;14.95;;;4.88;;
64353;SDS011;50681;53.334;-6.536;2023-06-04T02:13:13;10.93;;;4.90;;
64353;SDS011;50681;53.334;-6.536;2023-06-04T02:15:40;13.10;;;5.25;;
64353;SDS011;50681;53.334;-6.536;2023-06-04T02:18:16;11.70;;;5.10;;
64353;SDS011;50681;53.334;-6.536;2023-06-04T02:23:09;14.52;;;4.95;;
64353;SDS011;50681;53.334;-6.536;2023-06-04T02:25:35;22.60;;;5.27;;
64353;SDS011;50681;53.334;-6.536;2023-06-04T02:28:00;11.90;;;5.13;;
64353;SDS011;50681;53.334;-6.536;2023-06-04T02:30:26;14.47;;;5.33;;
64353;SDS011;50681;53.334;-6.536;2023-06-04T02:32:52;10.63;;;4.60;;
64353;SDS011;50681;53.334;-6.536;2023-06-04T02:35:22;15.27;;;5.20;;
64353;SDS011;50681;53.334;-6.536;2023-06-04T02:37:49;10.35;;;4.97;;
64353;SDS011;50681;53.334;-6.536;2023-06-04T02:40:15;13.77;;;5.15;;
64353;SDS011;50681;53.334;-6.536;2023-06-04T02:42:40;14.43;;;4.53;;
64353;SDS011;50681;53.334;-6.536;2023-06-04T02:45:06;14.83;;;5.13;;
64353;SDS011;50681;53.334;-6.536;2023-06-04T02:47:32;10.43;;;4.13;;
64353;SDS011;50681;53.334;-6.536;2023-06-04T02:49:57;12.70;;;4.93;;
64353;SDS011;50681;53.334;-6.536;2023-06-04T02:52:22;14.03;;;4.87;;
64353;SDS011;50681;53.334;-6.536;2023-06-04T02:54:50;12.02;;;4.53;;
64353;SDS011;50681;53.334;-6.536;2023-06-04T02:57:16;9.20;;;4.82;;
64353;SDS011;50681;53.334;-6.536;2023-06-04T02:59:41;15.30;;;4.80;;
64353;SDS011;50681;53.334;-6.536;2023-06-04T03:02:06;11.33;;;5.03;;
64353;SDS011;50681;53.334;-6.536;2023-06-04T03:04:32;14.50;;;5.40;;
64353;SDS011;50681;53.334;-6.536;2023-06-04T03:07:00;15.40;;;4.80;;
64353;SDS011;50681;53.334;-6.536;2023-06-04T03:09:32;13.73;;;5.60;;
64353;SDS011;50681;53.334;-6.536;2023-06-04T03:12:01;13.82;;;5.95;;
64353;SDS011;50681;53.334;-6.536;2023-06-04T03:14:28;15.00;;;5.40;;
64353;SDS011;50681;53.334;-6.536;2023-06-04T03:16:57;13.68;;;5.35;;
64353;SDS011;50681;53.334;-6.536;2023-06-04T03:19:26;10.98;;;5.97;;
64353;SDS011;50681;53.334;-6.536;2023-06-04T03:21:52;16.17;;;5.70;;
64353;SDS011;50681;53.334;-6.536;2023-06-04T03:24:18;18.05;;;6.20;;
64353;SDS011;50681;53.334;-6.536;2023-06-04T03:26:44;13.18;;;5.82;;
64353;SDS011;50681;53.334;-6.536;2023-06-04T03:29:10;12.33;;;5.80;;
64353;SDS011;50681;53.334;-6.536;2023-06-04T03:31:35;17.27;;;6.77;;
64353;SDS011;50681;53.334;-6.536;2023-06-04T03:34:00;15.77;;;7.30;;
64353;SDS011;50681;53.334;-6.536;2023-06-04T03:36:26;11.17;;;6.00;;
64353;SDS011;50681;53.334;-6.536;2023-06-04T03:38:56;17.63;;;6.97;;
64353;SDS011;50681;53.334;-6.536;2023-06-04T03:41:24;14.40;;;6.83;;
64353;SDS011;50681;53.334;-6.536;2023-06-04T03:43:51;23.63;;;8.18;;
64353;SDS011;50681;53.334;-6.536;2023-06-04T03:46:17;18.60;;;8.48;;
64353;SDS011;50681;53.334;-6.536;2023-06-04T03:48:43;15.30;;;9.03;;
64353;SDS011;50681;53.334;-6.536;2023-06-04T03:51:08;25.03;;;10.23;;
64353;SDS011;50681;53.334;-6.536;2023-06-04T03:53:34;20.43;;;10.23;;
64353;SDS011;50681;53.334;-6.536;2023-06-04T03:55:59;18.03;;;9.80;;
64353;SDS011;50681;53.334;-6.536;2023-06-04T03:58:25;20.70;;;11.37;;
64353;SDS011;50681;53.334;-6.536;2023-06-04T04:00:50;25.83;;;10.93;;
64353;SDS011;50681;53.334;-6.536;2023-06-04T04:03:16;24.42;;;10.52;;
64353;SDS011;50681;53.334;-6.536;2023-06-04T04:05:42;22.42;;;11.07;;
64353;SDS011;50681;53.334;-6.536;2023-06-04T04:08:08;23.67;;;11.53;;
64353;SDS011;50681;53.334;-6.536;2023-06-04T04:10:33;28.53;;;11.20;;
64353;SDS011;50681;53.334;-6.536;2023-06-04T04:12:59;21.60;;;10.90;;
64353;SDS011;50681;53.334;-6.536;2023-06-04T04:15:24;29.67;;;12.03;;
64353;SDS011;50681;53.334;-6.536;2023-06-04T04:17:50;30.67;;;11.47;;
64353;SDS011;50681;53.334;-6.536;2023-06-04T04:20:15;23.50;;;10.83;;
64353;SDS011;50681;53.334;-6.536;2023-06-04T04:22:41;22.37;;;11.33;;
64353;SDS011;50681;53.334;-6.536;2023-06-04T04:25:07;27.13;;;11.30;;
64353;SDS011;50681;53.334;-6.536;2023-06-04T04:30:00;23.33;;;11.05;;
64353;SDS011;50681;53.334;-6.536;2023-06-04T04:32:26;19.33;;;10.68;;
64353;SDS011;50681;53.334;-6.536;2023-06-04T04:34:52;32.30;;;11.73;;
64353;SDS011;50681;53.334;-6.536;2023-06-04T04:37:19;23.38;;;11.35;;
64353;SDS011;50681;53.334;-6.536;2023-06-04T04:39:47;28.50;;;11.25;;
64353;SDS011;50681;53.334;-6.536;2023-06-04T04:42:12;27.40;;;11.75;;
64353;SDS011;50681;53.334;-6.536;2023-06-04T04:44:38;25.43;;;12.00;;
64353;SDS011;50681;53.334;-6.536;2023-06-04T04:47:03;31.30;;;11.27;;
64353;SDS011;50681;53.334;-6.536;2023-06-04T04:49:29;27.17;;;11.87;;
64353;SDS011;50681;53.334;-6.536;2023-06-04T04:51:54;27.90;;;11.27;;
64353;SDS011;50681;53.334;-6.536;2023-06-04T04:54:20;22.13;;;10.17;;
64353;SDS011;50681;53.334;-6.536;2023-06-04T04:56:45;18.10;;;10.00;;
64353;SDS011;50681;53.334;-6.536;2023-06-04T04:59:13;28.10;;;10.27;;
64353;SDS011;50681;53.334;-6.536;2023-06-04T05:01:38;23.65;;;10.30;;
64353;SDS011;50681;53.334;-6.536;2023-06-04T05:04:04;17.87;;;9.67;;
64353;SDS011;50681;53.334;-6.536;2023-06-04T05:06:29;14.30;;;9.53;;
64353;SDS011;50681;53.334;-6.536;2023-06-04T05:08:55;17.17;;;8.70;;
64353;SDS011;50681;53.334;-6.536;2023-06-04T05:11:20;20.43;;;9.70;;
64353;SDS011;50681;53.334;-6.536;2023-06-04T05:13:46;22.00;;;8.73;;
64353;SDS011;50681;53.334;-6.536;2023-06-04T05:16:11;17.93;;;8.67;;
64353;SDS011;50681;53.334;-6.536;2023-06-04T05:18:37;20.90;;;9.33;;
64353;SDS011;50681;53.334;-6.536;2023-06-04T05:21:06;18.50;;;9.50;;
64353;SDS011;50681;53.334;-6.536;2023-06-04T05:23:32;20.90;;;8.70;;
64353;SDS011;50681;53.334;-6.536;2023-06-04T05:26:02;19.60;;;8.60;;
64353;SDS011;50681;53.334;-6.536;2023-06-04T05:28:29;22.52;;;9.43;;
64353;SDS011;50681;53.334;-6.536;2023-06-04T05:30:54;12.40;;;8.23;;
64353;SDS011;50681;53.334;-6.536;2023-06-04T05:33:27;20.27;;;9.40;;
64353;SDS011;50681;53.334;-6.536;2023-06-04T05:35:53;22.40;;;9.88;;
64353;SDS011;50681;53.334;-6.536;2023-06-04T05:38:25;22.92;;;9.88;;
64353;SDS011;50681;53.334;-6.536;2023-06-04T05:40:51;20.98;;;9.32;;
64353;SDS011;50681;53.334;-6.536;2023-06-04T05:43:19;28.00;;;9.07;;
64353;SDS011;50681;53.334;-6.536;2023-06-04T05:45:48;18.83;;;10.23;;
64353;SDS011;50681;53.334;-6.536;2023-06-04T05:48:13;21.83;;;9.93;;
64353;SDS011;50681;53.334;-6.536;2023-06-04T05:50:39;25.27;;;9.87;;
64353;SDS011;50681;53.334;-6.536;2023-06-04T05:53:05;20.38;;;9.55;;
64353;SDS011;50681;53.334;-6.536;2023-06-04T05:55:30;18.83;;;9.93;;
64353;SDS011;50681;53.334;-6.536;2023-06-04T05:57:58;22.50;;;9.48;;
64353;SDS011;50681;53.334;-6.536;2023-06-04T06:00:24;18.40;;;9.17;;
64353;SDS011;50681;53.334;-6.536;2023-06-04T06:02:50;25.33;;;8.53;;
64353;SDS011;50681;53.334;-6.536;2023-06-04T06:05:17;17.50;;;9.00;;
64353;SDS011;50681;53.334;-6.536;2023-06-04T06:07:43;21.60;;;8.18;;
64353;SDS011;50681;53.334;-6.536;2023-06-04T06:10:09;17.38;;;8.52;;
64353;SDS011;50681;53.334;-6.536;2023-06-04T06:12:35;19.77;;;8.40;;
64353;SDS011;50681;53.334;-6.536;2023-06-04T06:15:01;16.93;;;8.43;;
64353;SDS011;50681;53.334;-6.536;2023-06-04T06:17:26;17.97;;;7.93;;
64353;SDS011;50681;53.334;-6.536;2023-06-04T06:19:52;19.10;;;8.32;;
64353;SDS011;50681;53.334;-6.536;2023-06-04T06:22:18;18.13;;;8.53;;
64353;SDS011;50681;53.334;-6.536;2023-06-04T06:24:43;13.00;;;7.22;;
64353;SDS011;50681;53.334;-6.536;2023-06-04T06:27:10;20.05;;;7.95;;
64353;SDS011;50681;53.334;-6.536;2023-06-04T06:29:36;23.38;;;8.25;;
64353;SDS011;50681;53.334;-6.536;2023-06-04T06:32:02;15.98;;;7.13;;
64353;SDS011;50681;53.334;-6.536;2023-06-04T06:34:28;22.63;;;7.65;;
64353;SDS011;50681;53.334;-6.536;2023-06-04T06:40:16;13.20;;;7.40;;
64353;SDS011;50681;53.334;-6.536;2023-06-04T06:43:02;26.60;;;7.13;;
64353;SDS011;50681;53.334;-6.536;2023-06-04T06:45:54;15.27;;;5.97;;
64353;SDS011;50681;53.334;-6.536;2023-06-04T06:48:26;19.30;;;6.07;;
64353;SDS011;50681;53.334;-6.536;2023-06-04T06:50:51;18.90;;;5.13;;
64353;SDS011;50681;53.334;-6.536;2023-06-04T06:53:17;17.30;;;5.47;;
64353;SDS011;50681;53.334;-6.536;2023-06-04T06:55:42;19.33;;;5.80;;
64353;SDS011;50681;53.334;-6.536;2023-06-04T06:58:08;21.73;;;5.57;;
64353;SDS011;50681;53.334;-6.536;2023-06-04T07:00:33;14.23;;;4.80;;
64353;SDS011;50681;53.334;-6.536;2023-06-04T07:03:01;17.75;;;6.22;;
64353;SDS011;50681;53.334;-6.536;2023-06-04T07:05:30;16.27;;;5.20;;
64353;SDS011;50681;53.334;-6.536;2023-06-04T07:07:59;12.27;;;5.20;;
64353;SDS011;50681;53.334;-6.536;2023-06-04T07:10:32;15.32;;;5.65;;
64353;SDS011;50681;53.334;-6.536;2023-06-04T07:12:58;19.20;;;5.27;;
64353;SDS011;50681;53.334;-6.536;2023-06-04T07:15:29;20.30;;;5.65;;
64353;SDS011;50681;53.334;-6.536;2023-06-04T07:18:01;13.35;;;4.80;;
64353;SDS011;50681;53.334;-6.536;2023-06-04T07:20:54;15.40;;;5.47;;
64353;SDS011;50681;53.334;-6.536;2023-06-04T07:23:23;18.63;;;4.47;;
64353;SDS011;50681;53.334;-6.536;2023-06-04T07:25:49;16.90;;;6.07;;
64353;SDS011;50681;53.334;-6.536;2023-06-04T07:28:15;18.25;;;4.90;;
64353;SDS011;50681;53.334;-6.536;2023-06-04T07:30:40;15.23;;;4.60;;
64353;SDS011;50681;53.334;-6.536;2023-06-04T07:36:09;12.20;;;4.68;;
64353;SDS011;50681;53.334;-6.536;2023-06-04T07:38:57;12.18;;;4.70;;
64353;SDS011;50681;53.334;-6.536;2023-06-04T07:41:25;12.77;;;4.40;;
64353;SDS011;50681;53.334;-6.536;2023-06-04T07:46:55;12.90;;;4.57;;
64353;SDS011;50681;53.334;-6.536;2023-06-04T07:49:24;14.40;;;4.40;;
64353;SDS011;50681;53.334;-6.536;2023-06-04T07:55:27;11.60;;;4.15;;
64353;SDS011;50681;53.334;-6.536;2023-06-04T08:04:27;13.85;;;4.20;;
64353;SDS011;50681;53.334;-6.536;2023-06-04T08:06:52;8.83;;;4.07;;
64353;SDS011;50681;53.334;-6.536;2023-06-04T08:09:18;15.15;;;4.05;;
64353;SDS011;50681;53.334;-6.536;2023-06-04T08:11:44;16.35;;;4.40;;
64353;SDS011;50681;53.334;-6.536;2023-06-04T08:14:13;14.32;;;4.45;;
64353;SDS011;50681;53.334;-6.536;2023-06-04T08:16:53;10.82;;;4.00;;
64353;SDS011;50681;53.334;-6.536;2023-06-04T08:19:19;20.25;;;3.95;;
64353;SDS011;50681;53.334;-6.536;2023-06-04T08:21:45;10.98;;;4.03;;
64353;SDS011;50681;53.334;-6.536;2023-06-04T08:24:10;13.52;;;4.13;;
64353;SDS011;50681;53.334;-6.536;2023-06-04T08:26:36;14.15;;;3.72;;
64353;SDS011;50681;53.334;-6.536;2023-06-04T08:29:05;8.00;;;3.73;;
64353;SDS011;50681;53.334;-6.536;2023-06-04T08:31:31;15.82;;;4.18;;
64353;SDS011;50681;53.334;-6.536;2023-06-04T08:33:57;14.00;;;3.90;;
64353;SDS011;50681;53.334;-6.536;2023-06-04T08:36:23;17.40;;;4.68;;
64353;SDS011;50681;53.334;-6.536;2023-06-04T08:38:49;18.20;;;4.07;;
64353;SDS011;50681;53.334;-6.536;2023-06-04T08:41:17;13.23;;;4.20;;
64353;SDS011;50681;53.334;-6.536;2023-06-04T08:43:58;12.80;;;3.60;;
64353;SDS011;50681;53.334;-6.536;2023-06-04T08:46:26;14.13;;;3.53;;
64353;SDS011;50681;53.334;-6.536;2023-06-04T08:48:56;15.88;;;3.10;;
64353;SDS011;50681;53.334;-6.536;2023-06-04T08:51:27;12.90;;;3.95;;
64353;SDS011;50681;53.334;-6.536;2023-06-04T08:56:20;12.70;;;3.65;;
64353;SDS011;50681;53.334;-6.536;2023-06-04T08:58:47;13.35;;;3.30;;
64353;SDS011;50681;53.334;-6.536;2023-06-04T09:01:13;12.70;;;3.65;;
64353;SDS011;50681;53.334;-6.536;2023-06-04T09:03:39;12.93;;;3.95;;
64353;SDS011;50681;53.334;-6.536;2023-06-04T09:06:06;14.65;;;3.90;;
64353;SDS011;50681;53.334;-6.536;2023-06-04T09:08:34;12.50;;;3.40;;
64353;SDS011;50681;53.334;-6.536;2023-06-04T09:11:05;8.25;;;3.22;;
64353;SDS011;50681;53.334;-6.536;2023-06-04T09:13:35;9.93;;;2.85;;
64353;SDS011;50681;53.334;-6.536;2023-06-04T09:16:02;13.80;;;2.92;;
64353;SDS011;50681;53.334;-6.536;2023-06-04T09:18:28;11.10;;;3.60;;
64353;SDS011;50681;53.334;-6.536;2023-06-04T09:23:31;10.93;;;3.05;;
64353;SDS011;50681;53.334;-6.536;2023-06-04T09:26:06;17.42;;;3.53;;
64353;SDS011;50681;53.334;-6.536;2023-06-04T09:28:34;10.45;;;3.17;;
64353;SDS011;50681;53.334;-6.536;2023-06-04T09:31:00;10.90;;;3.40;;
64353;SDS011;50681;53.334;-6.536;2023-06-04T09:33:27;8.23;;;3.53;;
64353;SDS011;50681;53.334;-6.536;2023-06-04T09:38:22;11.95;;;3.38;;
64353;SDS011;50681;53.334;-6.536;2023-06-04T09:40:48;14.50;;;3.30;;
64353;SDS011;50681;53.334;-6.536;2023-06-04T09:43:21;19.23;;;3.50;;
64353;SDS011;50681;53.334;-6.536;2023-06-04T09:45:48;14.27;;;3.13;;
64353;SDS011;50681;53.334;-6.536;2023-06-04T09:48:20;9.90;;;3.15;;
64353;SDS011;50681;53.334;-6.536;2023-06-04T09:50:46;9.38;;;2.83;;
64353;SDS011;50681;53.334;-6.536;2023-06-04T09:53:13;15.20;;;2.78;;
64353;SDS011;50681;53.334;-6.536;2023-06-04T09:55:40;10.43;;;3.33;;
64353;SDS011;50681;53.334;-6.536;2023-06-04T09:58:06;10.95;;;3.10;;
64353;SDS011;50681;53.334;-6.536;2023-06-04T10:00:32;9.65;;;2.80;;
64353;SDS011;50681;53.334;-6.536;2023-06-04T10:05:26;6.30;;;2.70;;
64353;SDS011;50681;53.334;-6.536;2023-06-04T10:07:56;8.13;;;2.55;;
64353;SDS011;50681;53.334;-6.536;2023-06-04T10:10:26;7.40;;;2.72;;
64353;SDS011;50681;53.334;-6.536;2023-06-04T10:13:05;11.13;;;2.90;;
64353;SDS011;50681;53.334;-6.536;2023-06-04T10:15:35;10.98;;;2.80;;
64353;SDS011;50681;53.334;-6.536;2023-06-04T10:18:02;8.75;;;2.75;;
64353;SDS011;50681;53.334;-6.536;2023-06-04T10:20:28;8.50;;;3.05;;
64353;SDS011;50681;53.334;-6.536;2023-06-04T10:22:55;13.80;;;3.28;;
64353;SDS011;50681;53.334;-6.536;2023-06-04T10:25:21;7.35;;;2.95;;
64353;SDS011;50681;53.334;-6.536;2023-06-04T10:27:47;9.33;;;2.93;;
64353;SDS011;50681;53.334;-6.536;2023-06-04T10:30:15;7.38;;;2.58;;
64353;SDS011;50681;53.334;-6.536;2023-06-04T10:32:41;10.18;;;2.92;;
64353;SDS011;50681;53.334;-6.536;2023-06-04T10:35:06;6.60;;;2.83;;
64353;SDS011;50681;53.334;-6.536;2023-06-04T10:37:33;9.25;;;3.03;;
64353;SDS011;50681;53.334;-6.536;2023-06-04T10:39:59;9.68;;;3.13;;
64353;SDS011;50681;53.334;-6.536;2023-06-04T10:42:24;8.93;;;2.90;;
64353;SDS011;50681;53.334;-6.536;2023-06-04T10:44:51;11.80;;;2.83;;
64353;SDS011;50681;53.334;-6.536;2023-06-04T10:47:21;14.43;;;2.97;;
64353;SDS011;50681;53.334;-6.536;2023-06-04T10:49:50;7.13;;;2.97;;
64353;SDS011;50681;53.334;-6.536;2023-06-04T10:52:17;7.40;;;2.50;;
64353;SDS011;50681;53.334;-6.536;2023-06-04T10:54:45;9.02;;;2.60;;
64353;SDS011;50681;53.334;-6.536;2023-06-04T10:57:17;12.57;;;2.90;;
64353;SDS011;50681;53.334;-6.536;2023-06-04T10:59:56;7.65;;;2.70;;
64353;SDS011;50681;53.334;-6.536;2023-06-04T11:02:22;5.90;;;2.63;;
64353;SDS011;50681;53.334;-6.536;2023-06-04T11:05:09;7.82;;;2.65;;
64353;SDS011;50681;53.334;-6.536;2023-06-04T11:07:45;7.95;;;2.80;;
64353;SDS011;50681;53.334;-6.536;2023-06-04T11:10:12;10.05;;;3.17;;
64353;SDS011;50681;53.334;-6.536;2023-06-04T11:12:45;7.38;;;3.42;;
64353;SDS011;50681;53.334;-6.536;2023-06-04T11:15:11;11.10;;;7.35;;
64353;SDS011;50681;53.334;-6.536;2023-06-04T11:17:37;13.30;;;8.07;;
64353;SDS011;50681;53.334;-6.536;2023-06-04T11:20:02;11.35;;;4.90;;
64353;SDS011;50681;53.334;-6.536;2023-06-04T11:22:31;9.43;;;2.70;;
64353;SDS011;50681;53.334;-6.536;2023-06-04T11:24:57;10.73;;;3.65;;
64353;SDS011;50681;53.334;-6.536;2023-06-04T11:27:25;10.77;;;3.33;;
64353;SDS011;50681;53.334;-6.536;2023-06-04T11:29:51;6.60;;;3.20;;
64353;SDS011;50681;53.334;-6.536;2023-06-04T11:34:49;7.22;;;3.20;;
64353;SDS011;50681;53.334;-6.536;2023-06-04T11:37:15;8.10;;;3.20;;
64353;SDS011;50681;53.334;-6.536;2023-06-04T11:39:40;7.05;;;3.50;;
64353;SDS011;50681;53.334;-6.536;2023-06-04T11:42:08;6.30;;;3.70;;
64353;SDS011;50681;53.334;-6.536;2023-06-04T11:44:33;10.43;;;3.40;;
64353;SDS011;50681;53.334;-6.536;2023-06-04T11:46:59;6.43;;;2.55;;
64353;SDS011;50681;53.334;-6.536;2023-06-04T11:49:25;7.30;;;2.97;;
64353;SDS011;50681;53.334;-6.536;2023-06-04T11:51:58;6.72;;;2.90;;
64353;SDS011;50681;53.334;-6.536;2023-06-04T11:54:23;6.72;;;2.72;;
64353;SDS011;50681;53.334;-6.536;2023-06-04T11:56:52;11.15;;;2.92;;
64353;SDS011;50681;53.334;-6.536;2023-06-04T11:59:21;10.02;;;2.50;;
64353;SDS011;50681;53.334;-6.536;2023-06-04T12:01:47;5.35;;;2.25;;
64353;SDS011;50681;53.334;-6.536;2023-06-04T12:04:14;8.02;;;2.70;;
64353;SDS011;50681;53.334;-6.536;2023-06-04T12:06:52;8.63;;;3.03;;
64353;SDS011;50681;53.334;-6.536;2023-06-04T12:09:25;11.65;;;3.10;;
64353;SDS011;50681;53.334;-6.536;2023-06-04T12:12:03;10.43;;;3.15;;
64353;SDS011;50681;53.334;-6.536;2023-06-04T12:14:30;8.50;;;2.50;;
64353;SDS011;50681;53.334;-6.536;2023-06-04T12:16:56;11.38;;;2.88;;
64353;SDS011;50681;53.334;-6.536;2023-06-04T12:19:31;6.35;;;2.45;;
64353;SDS011;50681;53.334;-6.536;2023-06-04T12:22:02;8.27;;;2.70;;
64353;SDS011;50681;53.334;-6.536;2023-06-04T12:24:30;9.90;;;2.90;;
64353;SDS011;50681;53.334;-6.536;2023-06-04T12:27:15;4.60;;;2.58;;
64353;SDS011;50681;53.334;-6.536;2023-06-04T12:29:40;16.80;;;2.72;;
64353;SDS011;50681;53.334;-6.536;2023-06-04T12:32:09;18.23;;;3.15;;
64353;SDS011;50681;53.334;-6.536;2023-06-04T12:34:38;8.73;;;2.53;;
64353;SDS011;50681;53.334;-6.536;2023-06-04T12:37:05;14.10;;;2.97;;
64353;SDS011;50681;53.334;-6.536;2023-06-04T12:39:32;10.60;;;2.53;;
64353;SDS011;50681;53.334;-6.536;2023-06-04T12:41:58;12.65;;;2.95;;
64353;SDS011;50681;53.334;-6.536;2023-06-04T12:44:23;11.32;;;2.78;;
64353;SDS011;50681;53.334;-6.536;2023-06-04T12:46:49;12.23;;;2.83;;
64353;SDS011;50681;53.334;-6.536;2023-06-04T12:49:16;8.40;;;2.88;;
64353;SDS011;50681;53.334;-6.536;2023-06-04T12:51:41;7.63;;;2.67;;
64353;SDS011;50681;53.334;-6.536;2023-06-04T12:54:07;7.25;;;2.83;;
64353;SDS011;50681;53.334;-6.536;2023-06-04T12:56:33;9.32;;;2.90;;
64353;SDS011;50681;53.334;-6.536;2023-06-04T12:58:58;9.50;;;3.13;;
64353;SDS011;50681;53.334;-6.536;2023-06-04T13:01:24;8.70;;;2.90;;
64353;SDS011;50681;53.334;-6.536;2023-06-04T13:03:50;7.20;;;2.58;;
64353;SDS011;50681;53.334;-6.536;2023-06-04T13:06:15;8.48;;;2.78;;
64353;SDS011;50681;53.334;-6.536;2023-06-04T13:08:41;7.30;;;2.70;;
64353;SDS011;50681;53.334;-6.536;2023-06-04T13:11:07;7.20;;;2.72;;
64353;SDS011;50681;53.334;-6.536;2023-06-04T13:13:34;7.72;;;2.72;;
64353;SDS011;50681;53.334;-6.536;2023-06-04T13:16:01;9.50;;;2.60;;
64353;SDS011;50681;53.334;-6.536;2023-06-04T13:20:52;8.85;;;2.90;;
64353;SDS011;50681;53.334;-6.536;2023-06-04T13:23:17;7.47;;;2.75;;
64353;SDS011;50681;53.334;-6.536;2023-06-04T13:25:43;11.63;;;2.70;;
64353;SDS011;50681;53.334;-6.536;2023-06-04T13:28:08;6.27;;;2.70;;
64353;SDS011;50681;53.334;-6.536;2023-06-04T13:30:35;8.63;;;2.78;;
64353;SDS011;50681;53.334;-6.536;2023-06-04T13:33:04;11.38;;;2.75;;
64353;SDS011;50681;53.334;-6.536;2023-06-04T13:35:30;6.63;;;2.83;;
64353;SDS011;50681;53.334;-6.536;2023-06-04T13:37:56;7.47;;;2.72;;
64353;SDS011;50681;53.334;-6.536;2023-06-04T13:40:21;15.02;;;3.58;;
64353;SDS011;50681;53.334;-6.536;2023-06-04T13:42:47;8.73;;;2.63;;
64353;SDS011;50681;53.334;-6.536;2023-06-04T13:45:12;8.05;;;2.80;;
64353;SDS011;50681;53.334;-6.536;2023-06-04T13:47:38;8.13;;;2.80;;
64353;SDS011;50681;53.334;-6.536;2023-06-04T13:50:03;7.35;;;2.97;;
64353;SDS011;50681;53.334;-6.536;2023-06-04T13:52:29;12.07;;;2.60;;
64353;SDS011;50681;53.334;-6.536;2023-06-04T13:54:55;7.93;;;2.72;;
64353;SDS011;50681;53.334;-6.536;2023-06-04T13:57:21;16.08;;;3.17;;
64353;SDS011;50681;53.334;-6.536;2023-06-04T13:59:48;9.82;;;2.47;;
64353;SDS011;50681;53.334;-6.536;2023-06-04T14:02:14;8.55;;;2.63;;
64353;SDS011;50681;53.334;-6.536;2023-06-04T14:04:40;10.10;;;3.33;;
64353;SDS011;50681;53.334;-6.536;2023-06-04T14:07:05;7.25;;;2.50;;
64353;SDS011;50681;53.334;-6.536;2023-06-04T14:09:31;10.20;;;3.03;;
64353;SDS011;50681;53.334;-6.536;2023-06-04T14:11:57;7.47;;;2.72;;
64353;SDS011;50681;53.334;-6.536;2023-06-04T14:14:23;8.25;;;2.60;;
64353;SDS011;50681;53.334;-6.536;2023-06-04T14:16:48;8.20;;;2.70;;
64353;SDS011;50681;53.334;-6.536;2023-06-04T14:19:14;10.52;;;2.90;;
64353;SDS011;50681;53.334;-6.536;2023-06-04T14:21:43;5.70;;;2.40;;
64353;SDS011;50681;53.334;-6.536;2023-06-04T14:24:09;11.35;;;2.45;;
64353;SDS011;50681;53.334;-6.536;2023-06-04T14:26:35;10.60;;;2.60;;
64353;SDS011;50681;53.334;-6.536;2023-06-04T14:29:00;5.35;;;2.40;;
64353;SDS011;50681;53.334;-6.536;2023-06-04T14:31:27;5.97;;;2.42;;
64353;SDS011;50681;53.334;-6.536;2023-06-04T14:33:52;8.35;;;2.42;;
64353;SDS011;50681;53.334;-6.536;2023-06-04T14:36:18;13.95;;;4.55;;
64353;SDS011;50681;53.334;-6.536;2023-06-04T14:38:43;5.18;;;2.53;;
64353;SDS011;50681;53.334;-6.536;2023-06-04T14:41:09;5.82;;;2.05;;
64353;SDS011;50681;53.334;-6.536;2023-06-04T14:43:35;8.02;;;2.63;;
64353;SDS011;50681;53.334;-6.536;2023-06-04T14:46:00;7.20;;;2.50;;
64353;SDS011;50681;53.334;-6.536;2023-06-04T14:48:26;5.85;;;2.33;;
64353;SDS011;50681;53.334;-6.536;2023-06-04T14:50:51;4.73;;;2.17;;
64353;SDS011;50681;53.334;-6.536;2023-06-04T14:53:18;4.22;;;2.05;;
64353;SDS011;50681;53.334;-6.536;2023-06-04T14:55:44;4.40;;;1.60;;
64353;SDS011;50681;53.334;-6.536;2023-06-04T14:58:09;4.40;;;1.75;;
64353;SDS011;50681;53.334;-6.536;2023-06-04T15:00:36;6.88;;;2.05;;
64353;SDS011;50681;53.334;-6.536;2023-06-04T15:03:01;7.38;;;2.50;;
64353;SDS011;50681;53.334;-6.536;2023-06-04T15:05:27;4.65;;;1.80;;
64353;SDS011;50681;53.334;-6.536;2023-06-04T15:07:52;7.10;;;2.50;;
64353;SDS011;50681;53.334;-6.536;2023-06-04T15:10:18;7.47;;;1.65;;
64353;SDS011;50681;53.334;-6.536;2023-06-04T15:12:43;4.53;;;2.03;;